Time;durP1;ratioP1;P1;durP2;ratioP2;P2;SDS_P1;SDS_P2;PMS_P1;PMS_P2;Temp;Humidity;BMP_temperature;BMP_pressure;BME280_temperature;BME280_humidity;BME280_pressure;Samples;Min_cycle;Max_cycle;Signal;HPM_P1;HPM_P2
2024/03/16 13:24:48;;;;;;;22.02;9.98;;;15.50;67.90;;;;;;5135595;27;20178;-78
2024/03/16 13:27:14;;;;;;;10.15;6.32;;;15.70;69.30;;;;;;5080475;28;20020;-78
2024/03/16 13:29:39;;;;;;;15.57;7.80;;;15.80;69.00;;;;;;5074122;28;20043;-78
2024/03/16 13:32:05;;;;;;;15.27;8.18;;;15.80;68.60;;;;;;5080631;28;20028;-79
2024/03/16 13:34:32;;;;;;;19.73;8.02;;;15.80;69.20;;;;;;5083598;28;20461;-79
2024/03/16 13:37:02;;;;;;;11.45;6.22;;;15.70;68.10;;;;;;5085193;28;20036;-78
2024/03/16 13:39:30;;;;;;;11.43;6.10;;;15.70;68.90;;;;;;5078306;28;20017;-78
2024/03/16 13:42:01;;;;;;;11.45;7.18;;;15.70;68.80;;;;;;5083304;28;20388;-78
2024/03/16 13:44:26;;;;;;;11.15;5.95;;;15.50;68.00;;;;;;5085684;28;20573;-79
2024/03/16 13:46:53;;;;;;;12.05;7.72;;;15.40;68.40;;;;;;5079601;28;20070;-78
2024/03/16 13:49:19;;;;;;;8.48;5.45;;;15.40;68.10;;;;;;5100092;28;20111;-78
2024/03/16 13:51:45;;;;;;;22.40;9.70;;;15.30;68.60;;;;;;5088094;28;20165;-78
2024/03/16 13:54:10;;;;;;;18.55;9.05;;;15.20;69.20;;;;;;5088152;28;20028;-78
2024/03/16 13:56:36;;;;;;;29.88;12.50;;;15.20;69.90;;;;;;5084568;28;20485;-78
2024/03/16 13:59:02;;;;;;;29.13;11.75;;;15.10;70.40;;;;;;5083219;28;20055;-78
2024/03/16 14:01:29;;;;;;;41.25;16.70;;;15.10;70.20;;;;;;5083005;28;20043;-78
2024/03/16 14:03:57;;;;;;;46.88;18.77;;;15.00;70.60;;;;;;5088943;28;20486;-78
2024/03/16 14:06:25;;;;;;;17.50;7.90;;;14.90;71.20;;;;;;5087451;28;20535;-79
2024/03/16 14:08:53;;;;;;;7.72;4.72;;;14.80;69.80;;;;;;5087437;28;20032;-78
2024/03/16 14:11:19;;;;;;;10.60;6.70;;;14.80;70.10;;;;;;5081594;28;20082;-78
2024/03/16 14:13:44;;;;;;;14.07;8.57;;;14.60;70.80;;;;;;5085130;28;20028;-78
2024/03/16 14:16:11;;;;;;;6.72;3.30;;;14.50;72.70;;;;;;5088632;28;20024;-78
2024/03/16 14:18:45;;;;;;;4.78;2.50;;;14.10;76.70;;;;;;5090307;28;20028;-79
2024/03/16 14:21:11;;;;;;;2.88;2.60;;;13.60;81.00;;;;;;5095025;28;20035;-79
2024/03/16 14:23:37;;;;;;;8.82;4.03;;;13.10;88.20;;;;;;5088089;28;20052;-78
2024/03/16 14:26:03;;;;;;;2.70;2.35;;;12.90;91.50;;;;;;5087031;28;20036;-78
2024/03/16 14:28:30;;;;;;;9.63;4.35;;;12.70;95.50;;;;;;5087984;28;20484;-78
2024/03/16 14:30:56;;;;;;;4.05;3.38;;;12.60;98.50;;;;;;5087393;28;20048;-78
2024/03/16 14:33:22;;;;;;;4.40;3.08;;;12.50;99.90;;;;;;5087243;28;20044;-78
2024/03/16 14:35:51;;;;;;;12.18;5.55;;;12.30;99.90;;;;;;5073509;28;20021;-78
2024/03/16 14:38:17;;;;;;;4.30;3.85;;;12.40;99.90;;;;;;5068878;28;20454;-78
2024/03/16 14:40:43;;;;;;;3.38;3.08;;;12.30;99.90;;;;;;5070972;28;20111;-78
2024/03/16 14:43:09;;;;;;;4.85;3.40;;;12.20;99.90;;;;;;5071777;28;20111;-78
2024/03/16 14:45:34;;;;;;;6.63;2.80;;;12.20;99.90;;;;;;5061498;28;20028;-78
2024/03/16 14:48:00;;;;;;;3.10;2.80;;;12.30;99.90;;;;;;5071052;28;20023;-78
2024/03/16 14:50:28;;;;;;;6.88;3.10;;;12.30;99.90;;;;;;5065375;28;20086;-78
2024/03/16 14:52:57;;;;;;;2.75;1.95;;;12.20;99.90;;;;;;5071273;28;20024;-78
2024/03/16 14:55:23;;;;;;;2.10;1.92;;;12.20;99.90;;;;;;5066104;28;20020;-79
2024/03/16 14:57:49;;;;;;;2.60;1.92;;;12.30;99.90;;;;;;5082383;28;20029;-79
2024/03/16 15:00:15;;;;;;;9.75;2.25;;;12.30;99.90;;;;;;5077380;28;20051;-78
2024/03/16 15:02:42;;;;;;;3.13;1.85;;;12.30;99.90;;;;;;5064972;28;20474;-78
2024/03/16 15:05:07;;;;;;;1.92;1.67;;;12.10;99.90;;;;;;5070364;28;20023;-79
2024/03/16 15:07:33;;;;;;;2.47;1.85;;;12.20;99.90;;;;;;5074600;28;20024;-79
2024/03/16 15:09:59;;;;;;;3.45;2.53;;;12.20;99.90;;;;;;5067634;28;20490;-78
2024/03/16 15:12:25;;;;;;;2.28;1.92;;;12.20;99.90;;;;;;5072464;28;20024;-78
2024/03/16 15:14:51;;;;;;;5.45;2.85;;;12.20;99.90;;;;;;5072859;28;20109;-80
2024/03/16 15:17:17;;;;;;;4.55;2.80;;;12.20;99.90;;;;;;5073153;28;20103;-78
2024/03/16 15:19:43;;;;;;;2.58;2.38;;;12.20;99.90;;;;;;5072112;28;20371;-78
2024/03/16 15:22:09;;;;;;;3.50;2.92;;;12.20;99.90;;;;;;5065033;28;20021;-79
2024/03/16 15:24:36;;;;;;;3.97;2.50;;;12.30;99.90;;;;;;5071074;28;20052;-78
2024/03/16 15:29:46;;;;;;;3.80;3.22;;;12.40;99.90;;;;;;5061885;28;20453;-78
2024/03/16 15:32:11;;;;;;;5.45;3.70;;;12.40;99.90;;;;;;5058128;28;20045;-79
2024/03/16 15:34:37;;;;;;;5.72;3.50;;;12.40;99.90;;;;;;5060365;28;20029;-78
2024/03/16 15:37:03;;;;;;;8.93;4.30;;;12.50;99.90;;;;;;5067901;28;20035;-79
2024/03/16 15:39:29;;;;;;;9.32;5.35;;;12.50;99.90;;;;;;5062795;28;20029;-78
2024/03/16 15:41:55;;;;;;;9.20;4.40;;;12.50;99.90;;;;;;5071936;28;20078;-83
2024/03/16 15:44:21;;;;;;;6.03;3.97;;;12.50;99.90;;;;;;5065626;28;20505;-83
2024/03/16 15:46:47;;;;;;;7.13;3.22;;;12.50;99.90;;;;;;5071738;28;20091;-83
2024/03/16 15:49:13;;;;;;;12.07;6.95;;;12.40;99.90;;;;;;5069569;28;20028;-83
2024/03/16 15:51:38;;;;;;;18.13;8.10;;;12.40;99.90;;;;;;5071074;28;20398;-83
2024/03/16 15:54:04;;;;;;;10.90;5.60;;;12.30;99.90;;;;;;5064349;28;20028;-83
2024/03/16 15:56:30;;;;;;;6.32;3.58;;;12.40;99.90;;;;;;5065801;28;20020;-84
2024/03/16 15:58:59;;;;;;;6.53;4.50;;;12.30;99.90;;;;;;5066192;28;20028;-83
2024/03/16 16:01:28;;;;;;;6.10;4.00;;;12.30;99.90;;;;;;5071703;28;20088;-83
2024/03/16 16:03:55;;;;;;;8.45;4.40;;;12.40;99.90;;;;;;5071385;28;20044;-83
2024/03/16 16:06:21;;;;;;;8.65;4.90;;;12.40;99.90;;;;;;5072380;28;20055;-82
2024/03/16 16:08:47;;;;;;;11.10;5.70;;;12.40;99.90;;;;;;5071761;28;20031;-78
2024/03/16 16:11:16;;;;;;;10.38;6.63;;;12.50;99.90;;;;;;5071164;28;20029;-79
2024/03/16 16:13:41;;;;;;;15.98;8.88;;;12.50;99.90;;;;;;5069879;28;20162;-78
2024/03/16 16:16:07;;;;;;;13.25;7.20;;;12.50;99.90;;;;;;5072873;28;20095;-79
2024/03/16 16:18:33;;;;;;;14.82;7.82;;;12.40;99.90;;;;;;5072439;28;20016;-78
2024/03/16 16:20:58;;;;;;;11.90;6.22;;;12.40;99.90;;;;;;5066020;28;20024;-83
2024/03/16 16:23:25;;;;;;;18.00;8.88;;;12.40;99.90;;;;;;5070559;28;20072;-83
2024/03/16 16:25:51;;;;;;;18.25;8.70;;;12.40;99.90;;;;;;5069365;28;20382;-83
2024/03/16 16:28:17;;;;;;;13.60;8.98;;;12.40;99.90;;;;;;5071253;28;20028;-78
2024/03/16 16:30:43;;;;;;;22.08;8.40;;;12.30;99.90;;;;;;5067173;28;20032;-79
2024/03/16 16:33:08;;;;;;;21.13;10.65;;;12.30;99.90;;;;;;5066209;28;20103;-79
2024/03/16 16:35:35;;;;;;;35.63;15.77;;;12.30;99.90;;;;;;5071199;28;20024;-79
2024/03/16 16:38:01;;;;;;;22.02;10.10;;;12.10;99.90;;;;;;5067469;28;20031;-79
2024/03/16 16:40:28;;;;;;;23.02;10.82;;;12.00;99.90;;;;;;5069921;28;20078;-79
2024/03/16 16:42:54;;;;;;;18.02;8.30;;;12.00;99.90;;;;;;5068911;28;20032;-79
2024/03/16 16:45:20;;;;;;;9.93;5.90;;;11.90;99.90;;;;;;5070593;28;20086;-79
2024/03/16 16:47:46;;;;;;;23.35;10.95;;;11.80;99.90;;;;;;5068864;28;20020;-79
2024/03/16 16:50:11;;;;;;;25.55;11.70;;;11.70;99.90;;;;;;5065466;28;20025;-79
2024/03/16 16:52:37;;;;;;;23.88;12.15;;;11.60;99.90;;;;;;5071433;28;20029;-79
2024/03/16 16:55:04;;;;;;;23.40;11.75;;;11.50;99.90;;;;;;5068478;28;20040;-79
2024/03/16 16:57:34;;;;;;;23.42;12.07;;;11.40;99.90;;;;;;5057561;22;20122;-79
2024/03/16 17:00:10;;;;;;;27.58;14.70;;;11.30;99.90;;;;;;5049663;28;20049;-76
2024/03/16 17:02:37;;;;;;;23.17;13.05;;;11.30;99.90;;;;;;5045434;28;20132;-76
2024/03/16 17:05:06;;;;;;;25.55;14.85;;;11.20;99.90;;;;;;5049048;28;20470;-78
2024/03/16 17:07:36;;;;;;;34.67;18.63;;;11.10;99.90;;;;;;5046632;28;20025;-79
2024/03/16 17:10:06;;;;;;;18.92;12.20;;;11.10;99.90;;;;;;5046701;28;20021;-81
2024/03/16 17:12:33;;;;;;;30.85;16.42;;;10.90;99.90;;;;;;5049375;28;20029;-81
2024/03/16 17:14:58;;;;;;;67.47;38.90;;;10.80;99.90;;;;;;5048159;28;20386;-81
2024/03/16 17:17:24;;;;;;;40.90;21.63;;;10.80;99.90;;;;;;5047388;28;20036;-81
2024/03/16 17:19:49;;;;;;;38.13;22.23;;;10.70;99.90;;;;;;5046792;28;20397;-81
2024/03/16 17:22:15;;;;;;;38.63;20.42;;;10.50;99.90;;;;;;5046309;28;20147;-81
2024/03/16 17:24:41;;;;;;;49.05;21.02;;;10.40;99.90;;;;;;5047343;28;20546;-81
2024/03/16 17:27:07;;;;;;;44.10;22.83;;;10.40;99.90;;;;;;5048981;28;20048;-81
2024/03/16 17:29:33;;;;;;;67.88;31.77;;;10.30;99.90;;;;;;5049094;28;20048;-79
2024/03/16 17:32:00;;;;;;;48.70;25.67;;;10.20;99.90;;;;;;5050709;28;20083;-79
2024/03/16 17:34:25;;;;;;;47.53;26.58;;;10.10;99.90;;;;;;5050989;28;20024;-81
2024/03/16 17:36:51;;;;;;;46.47;25.05;;;10.10;99.90;;;;;;5044457;28;20029;-79
2024/03/16 17:39:19;;;;;;;66.60;35.30;;;10.10;99.90;;;;;;5049069;28;20028;-79
2024/03/16 17:41:45;;;;;;;68.28;35.25;;;10.00;99.90;;;;;;5050889;28;20112;-79
2024/03/16 17:44:11;;;;;;;55.10;29.10;;;9.90;99.90;;;;;;5050664;28;20129;-81
2024/03/16 17:46:38;;;;;;;49.17;26.70;;;9.80;99.90;;;;;;5052056;28;20053;-79
2024/03/16 17:49:05;;;;;;;42.67;22.67;;;9.70;99.90;;;;;;5050856;28;20024;-79
2024/03/16 17:51:31;;;;;;;44.22;23.70;;;9.60;99.90;;;;;;5050783;28;20487;-81
2024/03/16 17:53:57;;;;;;;48.78;25.80;;;9.60;99.90;;;;;;5052184;28;20021;-81
2024/03/16 17:56:23;;;;;;;55.08;26.70;;;9.50;99.90;;;;;;5049690;28;20017;-79
2024/03/16 17:58:51;;;;;;;43.03;23.88;;;9.40;99.90;;;;;;5048975;28;20045;-79
2024/03/16 18:01:17;;;;;;;60.95;32.88;;;9.30;99.90;;;;;;5050637;28;20028;-79
2024/03/16 18:03:43;;;;;;;59.53;32.30;;;9.20;99.90;;;;;;5050491;28;20065;-79
2024/03/16 18:06:08;;;;;;;59.55;34.05;;;9.10;99.90;;;;;;5049025;28;20532;-79
2024/03/16 18:08:34;;;;;;;57.03;31.48;;;9.10;99.90;;;;;;5046456;28;20021;-79
2024/03/16 18:11:00;;;;;;;64.03;35.40;;;9.10;99.90;;;;;;5051882;28;20486;-79
2024/03/16 18:13:25;;;;;;;63.58;34.75;;;9.00;99.90;;;;;;5053263;28;20253;-81
2024/03/16 18:15:53;;;;;;;64.97;41.10;;;9.10;99.90;;;;;;5054638;28;20390;-81
2024/03/16 18:18:20;;;;;;;63.67;38.45;;;9.10;99.90;;;;;;5053502;28;20017;-81
2024/03/16 18:20:45;;;;;;;59.83;35.58;;;9.10;99.90;;;;;;5054601;28;20021;-81
2024/03/16 18:23:11;;;;;;;64.22;39.47;;;9.10;99.90;;;;;;5053570;28;20043;-79
2024/03/16 18:25:37;;;;;;;70.00;42.53;;;9.10;99.90;;;;;;5053475;28;20025;-81
2024/03/16 18:28:04;;;;;;;67.65;41.78;;;9.10;99.90;;;;;;5054533;28;20371;-81
2024/03/16 18:30:31;;;;;;;62.30;38.42;;;9.10;99.90;;;;;;5053815;28;20025;-79
2024/03/16 18:32:57;;;;;;;65.30;40.47;;;9.20;99.90;;;;;;5055182;28;20033;-82
2024/03/16 18:35:24;;;;;;;71.13;44.90;;;9.20;99.90;;;;;;5052183;28;20029;-79
2024/03/16 18:37:52;;;;;;;60.45;36.65;;;9.20;99.90;;;;;;5055060;28;20024;-79
2024/03/16 18:40:20;;;;;;;68.18;38.20;;;9.20;99.90;;;;;;5047728;28;20083;-79
2024/03/16 18:42:46;;;;;;;73.85;44.28;;;9.10;99.90;;;;;;5047836;28;20387;-78
2024/03/16 18:45:15;;;;;;;62.38;37.92;;;9.20;99.90;;;;;;5047209;28;20075;-78
2024/03/16 18:47:41;;;;;;;57.25;36.60;;;9.20;99.90;;;;;;5049527;28;20143;-78
2024/03/16 18:50:10;;;;;;;82.75;46.78;;;9.30;99.90;;;;;;5053764;28;20028;-78
2024/03/16 18:52:42;;;;;;;67.53;38.63;;;9.30;99.90;;;;;;5054480;28;20520;-78
2024/03/16 18:55:11;;;;;;;87.68;49.08;;;9.20;99.90;;;;;;5044450;28;20100;-78
2024/03/16 18:57:39;;;;;;;64.90;38.38;;;9.20;99.90;;;;;;5047420;28;20049;-79
2024/03/16 19:00:17;;;;;;;66.47;42.47;;;9.20;99.90;;;;;;5052890;28;20102;-79
2024/03/16 19:02:46;;;;;;;65.18;39.65;;;9.20;99.90;;;;;;5049212;28;20025;-81
2024/03/16 19:05:12;;;;;;;54.40;31.85;;;9.20;99.90;;;;;;5051679;28;20036;-80
2024/03/16 19:07:38;;;;;;;73.53;40.30;;;9.20;99.90;;;;;;5054061;28;20021;-80
2024/03/16 19:10:08;;;;;;;58.10;34.70;;;9.20;99.90;;;;;;5053822;28;20035;-80
2024/03/16 19:12:37;;;;;;;63.85;39.33;;;9.30;99.90;;;;;;5052165;28;20019;-81
2024/03/16 19:15:04;;;;;;;63.00;39.30;;;9.30;99.90;;;;;;5047846;28;20037;-81
2024/03/16 19:17:30;;;;;;;61.65;38.55;;;9.30;99.90;;;;;;5051096;28;20032;-81
2024/03/16 19:19:55;;;;;;;60.13;37.30;;;9.30;99.90;;;;;;5051952;28;20025;-81
2024/03/16 19:22:23;;;;;;;53.58;35.28;;;9.30;99.90;;;;;;5049827;28;20415;-79
2024/03/16 19:24:49;;;;;;;69.95;42.65;;;9.30;99.90;;;;;;5052189;28;20044;-78
2024/03/16 19:27:14;;;;;;;61.72;37.45;;;9.30;99.90;;;;;;5047964;28;20096;-79
2024/03/16 19:29:47;;;;;;;73.63;43.47;;;9.30;99.90;;;;;;5053178;28;20033;-79
2024/03/16 19:32:15;;;;;;;75.30;47.00;;;9.30;99.90;;;;;;5051708;28;20083;-79
2024/03/16 19:34:47;;;;;;;76.20;46.08;;;9.40;99.90;;;;;;5053028;28;20082;-79
2024/03/16 19:37:16;;;;;;;74.82;43.17;;;9.30;99.90;;;;;;5052809;28;20017;-79
2024/03/16 19:39:43;;;;;;;71.65;41.88;;;9.40;99.90;;;;;;5051635;28;20053;-79
2024/03/16 19:42:09;;;;;;;66.72;41.20;;;9.40;99.90;;;;;;5051484;28;20046;-79
2024/03/16 19:44:35;;;;;;;59.83;39.13;;;9.40;99.90;;;;;;5047036;28;20025;-79
2024/03/16 19:47:01;;;;;;;65.03;41.75;;;9.40;99.90;;;;;;5049431;28;20106;-79
2024/03/16 19:49:27;;;;;;;73.50;46.90;;;9.40;99.90;;;;;;5046293;28;20167;-79
2024/03/16 19:51:53;;;;;;;99.60;58.10;;;9.40;99.90;;;;;;5047030;28;20100;-80
2024/03/16 19:54:18;;;;;;;99.35;59.55;;;9.40;99.90;;;;;;5052077;28;20506;-81
2024/03/16 19:56:44;;;;;;;107.13;61.45;;;9.40;99.90;;;;;;5051341;28;20036;-80
2024/03/16 19:59:10;;;;;;;86.03;54.22;;;9.40;99.90;;;;;;5050827;28;20107;-81
2024/03/16 20:01:35;;;;;;;90.57;56.30;;;9.40;99.90;;;;;;5050751;28;20029;-81
2024/03/16 20:04:01;;;;;;;89.53;54.67;;;9.40;99.90;;;;;;5052815;28;20032;-80
2024/03/16 20:06:26;;;;;;;83.05;50.80;;;9.40;99.90;;;;;;5052276;28;20028;-81
2024/03/16 20:08:52;;;;;;;91.57;54.95;;;9.40;99.90;;;;;;5049642;28;20025;-79
2024/03/16 20:11:18;;;;;;;98.70;57.20;;;9.40;99.90;;;;;;5052777;28;20021;-80
2024/03/16 20:13:43;;;;;;;77.88;49.03;;;9.40;99.90;;;;;;5048980;28;20521;-81
2024/03/16 20:16:09;;;;;;;81.78;51.60;;;9.40;99.90;;;;;;5051273;28;20390;-78
2024/03/16 20:18:35;;;;;;;89.15;53.15;;;9.40;99.90;;;;;;5046874;28;20079;-77
2024/03/16 20:21:02;;;;;;;86.13;52.42;;;9.40;99.90;;;;;;5052452;28;20531;-76
2024/03/16 20:23:28;;;;;;;83.72;51.00;;;9.40;99.90;;;;;;5046311;28;20040;-76
2024/03/16 20:25:54;;;;;;;85.22;48.17;;;9.40;99.90;;;;;;5049918;28;20025;-77
2024/03/16 20:28:23;;;;;;;87.70;51.38;;;9.40;99.90;;;;;;5041509;28;20021;-76
2024/03/16 20:30:49;;;;;;;87.07;51.60;;;9.40;99.90;;;;;;5044025;28;20017;-77
2024/03/16 20:33:15;;;;;;;83.30;50.78;;;9.30;99.90;;;;;;5049629;28;20458;-76
2024/03/16 20:35:40;;;;;;;86.85;50.92;;;9.30;99.90;;;;;;5048846;28;20029;-76
2024/03/16 20:38:06;;;;;;;85.70;55.92;;;9.30;99.90;;;;;;5046447;28;20021;-80
2024/03/16 20:40:32;;;;;;;91.53;56.70;;;9.30;99.90;;;;;;5043586;28;20511;-80
2024/03/16 20:42:58;;;;;;;89.07;52.85;;;9.20;99.90;;;;;;5032271;28;20053;-80
2024/03/16 20:45:26;;;;;;;76.20;47.63;;;9.20;99.90;;;;;;5040277;28;20048;-75
2024/03/16 20:47:52;;;;;;;78.28;48.67;;;9.20;99.90;;;;;;5052548;28;20028;-81
2024/03/16 20:50:19;;;;;;;78.40;48.70;;;9.10;99.90;;;;;;5052953;28;20086;-80
2024/03/16 20:52:45;;;;;;;69.72;44.45;;;9.10;99.90;;;;;;5051273;28;20474;-80
2024/03/16 20:55:16;;;;;;;75.50;45.72;;;9.10;99.90;;;;;;5048240;28;20032;-76
2024/03/16 20:57:42;;;;;;;72.85;45.90;;;9.10;99.90;;;;;;5047528;28;20056;-77
2024/03/16 21:00:10;;;;;;;67.63;41.42;;;9.00;99.90;;;;;;5047929;28;20430;-78
2024/03/16 21:02:36;;;;;;;72.60;44.45;;;9.00;99.90;;;;;;5050022;28;20134;-78
2024/03/16 21:05:04;;;;;;;78.93;47.95;;;9.00;99.90;;;;;;5050555;28;20478;-78
2024/03/16 21:07:32;;;;;;;79.70;49.78;;;9.00;99.90;;;;;;5046967;28;20118;-78
2024/03/16 21:10:03;;;;;;;74.10;46.20;;;8.90;99.90;;;;;;5046695;28;20056;-78
2024/03/16 21:12:35;;;;;;;75.20;45.33;;;9.00;99.90;;;;;;5048154;28;20126;-78
2024/03/16 21:15:03;;;;;;;71.70;45.05;;;9.00;99.90;;;;;;5051106;28;20100;-78
2024/03/16 21:17:30;;;;;;;70.38;43.85;;;8.90;99.90;;;;;;5049883;28;20120;-78
2024/03/16 21:19:59;;;;;;;84.97;50.15;;;8.90;99.90;;;;;;5049902;28;20033;-78
2024/03/16 21:22:29;;;;;;;81.05;50.50;;;8.90;99.90;;;;;;5046110;28;20029;-78
2024/03/16 21:24:55;;;;;;;76.72;48.20;;;8.90;99.90;;;;;;5043231;28;20037;-78
2024/03/16 21:27:20;;;;;;;80.07;49.75;;;8.90;99.90;;;;;;5050022;28;20527;-79
2024/03/16 21:29:47;;;;;;;85.38;52.83;;;8.90;99.90;;;;;;5051790;28;20033;-78
2024/03/16 21:32:12;;;;;;;86.50;51.05;;;8.90;99.90;;;;;;5049721;28;20379;-79
2024/03/16 21:34:38;;;;;;;78.57;50.03;;;8.90;99.90;;;;;;5050208;28;20021;-78
2024/03/16 21:37:04;;;;;;;68.72;42.30;;;8.90;99.90;;;;;;5047130;28;20174;-78
2024/03/16 21:39:31;;;;;;;77.43;46.65;;;8.90;99.90;;;;;;5038278;28;20543;-78
2024/03/16 21:41:57;;;;;;;57.08;37.55;;;8.90;99.90;;;;;;5037181;28;20118;-78
2024/03/16 21:44:23;;;;;;;65.10;39.05;;;8.90;99.90;;;;;;5049632;28;20068;-78
2024/03/16 21:46:51;;;;;;;54.25;31.98;;;8.80;99.90;;;;;;5052931;28;20025;-79
2024/03/16 21:49:17;;;;;;;39.97;24.55;;;8.80;99.90;;;;;;5052745;28;20119;-79
2024/03/16 21:51:44;;;;;;;39.78;24.77;;;8.80;99.90;;;;;;5045025;28;20441;-78
2024/03/16 21:54:10;;;;;;;28.52;16.95;;;8.70;99.90;;;;;;5049087;28;20352;-79
2024/03/16 21:56:36;;;;;;;26.40;14.30;;;8.70;99.90;;;;;;5053121;28;20039;-80
2024/03/16 21:59:02;;;;;;;23.30;14.65;;;8.70;99.90;;;;;;5054254;28;20045;-79
2024/03/16 22:01:28;;;;;;;23.92;13.27;;;8.70;99.90;;;;;;5047649;28;20093;-79
2024/03/16 22:03:54;;;;;;;18.98;13.40;;;8.80;99.90;;;;;;5053509;28;20063;-80
2024/03/16 22:06:20;;;;;;;18.00;12.38;;;8.70;99.90;;;;;;5052973;28;20021;-80
2024/03/16 22:08:46;;;;;;;19.10;12.23;;;8.70;99.90;;;;;;5053670;28;20024;-80
2024/03/16 22:11:14;;;;;;;18.42;11.93;;;8.70;99.90;;;;;;5052286;28;20092;-80
2024/03/16 22:13:40;;;;;;;19.77;12.70;;;8.70;99.90;;;;;;5053316;28;20060;-80
2024/03/16 22:16:09;;;;;;;23.42;14.25;;;8.70;99.90;;;;;;5054466;28;20441;-80
2024/03/16 22:18:37;;;;;;;23.50;14.05;;;8.70;99.90;;;;;;5052756;28;20033;-80
2024/03/16 22:21:05;;;;;;;23.55;14.00;;;8.70;99.90;;;;;;5052651;28;20048;-80
2024/03/16 22:23:31;;;;;;;23.90;14.20;;;8.70;99.90;;;;;;5052731;28;20437;-80
2024/03/16 22:25:58;;;;;;;18.50;12.63;;;8.70;99.90;;;;;;5054690;28;20023;-82
2024/03/16 22:28:24;;;;;;;18.95;13.55;;;8.70;99.90;;;;;;5054062;28;20043;-81
2024/03/16 22:30:49;;;;;;;19.92;13.18;;;8.60;99.90;;;;;;5054851;28;20100;-82
2024/03/16 22:33:15;;;;;;;16.88;11.05;;;8.60;99.90;;;;;;5053982;28;20037;-82
2024/03/16 22:35:41;;;;;;;17.35;10.85;;;8.60;99.90;;;;;;5052683;28;20029;-82
2024/03/16 22:38:07;;;;;;;15.45;11.60;;;8.60;99.90;;;;;;5052207;28;20040;-80
2024/03/16 22:40:34;;;;;;;16.13;10.65;;;8.60;99.90;;;;;;5054471;28;20190;-80
2024/03/16 22:43:00;;;;;;;18.48;10.43;;;8.60;99.90;;;;;;5053866;28;20029;-80
2024/03/16 22:45:25;;;;;;;12.77;9.27;;;8.60;99.90;;;;;;5053985;28;20023;-82
2024/03/16 22:47:51;;;;;;;11.60;9.05;;;8.50;99.90;;;;;;5053087;28;20025;-80
2024/03/16 22:50:17;;;;;;;10.90;7.38;;;8.50;99.90;;;;;;5049801;28;20041;-80
2024/03/16 22:52:45;;;;;;;9.43;7.57;;;8.40;99.90;;;;;;5049391;28;20037;-80
2024/03/16 22:55:10;;;;;;;10.57;7.43;;;8.50;99.90;;;;;;5046654;28;20458;-80
2024/03/16 22:57:36;;;;;;;12.63;8.15;;;8.40;99.90;;;;;;5045156;28;20076;-80
2024/03/16 23:00:06;;;;;;;12.07;7.45;;;8.40;99.90;;;;;;5049484;28;20044;-80
2024/03/16 23:02:32;;;;;;;11.93;7.53;;;8.40;99.90;;;;;;5045415;28;20022;-80
2024/03/16 23:04:58;;;;;;;10.60;7.85;;;8.40;99.90;;;;;;5051410;28;20041;-80
2024/03/16 23:07:23;;;;;;;11.13;7.90;;;8.30;99.90;;;;;;5052491;28;20360;-80
2024/03/16 23:09:49;;;;;;;11.90;7.30;;;8.30;99.90;;;;;;5051661;28;20371;-80
2024/03/16 23:12:15;;;;;;;10.75;7.85;;;8.40;99.90;;;;;;5053375;28;20021;-80
2024/03/16 23:14:41;;;;;;;12.73;8.05;;;8.30;99.90;;;;;;5052145;28;20091;-79
2024/03/16 23:17:08;;;;;;;11.80;7.70;;;8.40;99.90;;;;;;5049911;28;20020;-80
2024/03/16 23:19:34;;;;;;;16.42;10.60;;;8.40;99.90;;;;;;5051580;28;20033;-80
2024/03/16 23:22:02;;;;;;;12.73;7.68;;;8.40;99.90;;;;;;5050644;28;20036;-79
2024/03/16 23:24:28;;;;;;;10.45;7.32;;;8.30;99.90;;;;;;5050325;28;20041;-79
2024/03/16 23:26:54;;;;;;;9.52;7.32;;;8.30;99.90;;;;;;5049791;28;20009;-79
2024/03/16 23:29:23;;;;;;;12.13;7.28;;;8.30;99.90;;;;;;5053118;28;20075;-81
2024/03/16 23:31:49;;;;;;;10.73;7.50;;;8.30;99.90;;;;;;5054364;28;20025;-81
2024/03/16 23:34:15;;;;;;;8.73;6.90;;;8.20;99.90;;;;;;5052890;28;20490;-81
2024/03/16 23:36:41;;;;;;;7.55;4.95;;;8.20;99.90;;;;;;5053144;28;20079;-81
2024/03/16 23:39:08;;;;;;;6.97;5.15;;;8.10;99.90;;;;;;5052855;28;20028;-81
2024/03/16 23:41:34;;;;;;;6.05;4.50;;;8.00;99.90;;;;;;5053990;28;20398;-78
2024/03/16 23:44:02;;;;;;;5.95;4.32;;;7.80;99.90;;;;;;5054358;28;20390;-81
2024/03/16 23:46:28;;;;;;;4.68;3.85;;;7.70;99.90;;;;;;5053796;28;20013;-81
2024/03/16 23:48:54;;;;;;;7.35;5.18;;;7.40;99.90;;;;;;5053948;28;20029;-78
2024/03/16 23:51:19;;;;;;;5.15;3.42;;;7.40;99.90;;;;;;5053795;28;20024;-81
2024/03/16 23:53:45;;;;;;;10.18;6.18;;;7.20;99.90;;;;;;5053826;28;20025;-79
2024/03/16 23:56:11;;;;;;;6.35;4.47;;;7.10;99.90;;;;;;5054025;28;20454;-78
2024/03/16 23:58:36;;;;;;;8.43;5.55;;;7.00;99.90;;;;;;5053822;28;20061;-81
